createdAt,value
2022-12-16T00:01:23.527Z,-8.59
2022-12-16T00:05:25.108Z,-9.14
2022-12-16T00:09:26.627Z,-8.99
2022-12-16T00:13:30.794Z,-8.71
2022-12-16T00:17:32.492Z,-8.76
2022-12-16T00:21:33.976Z,-8.81
2022-12-16T00:25:35.402Z,-9.33
2022-12-16T00:29:37.022Z,-9.08
2022-12-16T00:33:38.505Z,-9.68
2022-12-16T00:37:39.955Z,-9.60
2022-12-16T00:41:41.430Z,-9.50
2022-12-16T00:45:42.939Z,-9.51
2022-12-16T00:49:44.437Z,-9.34
2022-12-16T00:53:46.060Z,-9.29
2022-12-16T00:57:47.595Z,-9.11
2022-12-16T01:01:49.219Z,-9.32
2022-12-16T01:05:50.910Z,-9.23
2022-12-16T01:09:52.502Z,-9.05
2022-12-16T01:13:56.429Z,-8.90
2022-12-16T01:17:57.914Z,-8.85
2022-12-16T01:21:59.483Z,-9.30
2022-12-16T01:26:01.985Z,-9.40
2022-12-16T01:30:03.712Z,-9.44
2022-12-16T01:34:05.193Z,-9.43
2022-12-16T01:38:06.636Z,-9.29
2022-12-16T01:42:16.312Z,-9.34
2022-12-16T01:46:23.657Z,-9.27
2022-12-16T01:50:26.080Z,-9.22
2022-12-16T01:54:36.854Z,-9.17
2022-12-16T01:58:41.236Z,-9.28
2022-12-16T02:02:45.294Z,-9.31
2022-12-16T02:06:47.490Z,-9.16
2022-12-16T02:11:23.069Z,-9.21
2022-12-16T02:15:39.727Z,-9.41
2022-12-16T02:19:57.311Z,-9.20
2022-12-16T02:24:19.251Z,-9.10
2022-12-16T02:28:39.474Z,-9.01
2022-12-16T02:32:51.382Z,-8.94
2022-12-16T02:37:04.091Z,-9.12
2022-12-16T02:41:16.717Z,-9.23
2022-12-16T02:45:28.691Z,-9.07
2022-12-16T02:49:30.503Z,-8.99
2022-12-16T02:53:36.883Z,-8.91
2022-12-16T02:57:56.301Z,-9.04
2022-12-16T03:02:06.433Z,-8.93
2022-12-16T03:06:10.890Z,-8.92
2022-12-16T03:10:17.367Z,-8.84
2022-12-16T03:14:23.543Z,-8.87
2022-12-16T03:18:26.190Z,-8.90
2022-12-16T03:22:34.867Z,-8.91
2022-12-16T03:26:51.545Z,-8.89
2022-12-16T03:31:01.677Z,-8.92
2022-12-16T03:35:19.534Z,-8.90
2022-12-16T03:39:23.512Z,-8.92
2022-12-16T03:43:25.393Z,-8.92
2022-12-16T03:47:29.163Z,-8.96
2022-12-16T03:51:30.605Z,-8.92
2022-12-16T03:55:32.720Z,-8.93
2022-12-16T03:59:34.141Z,-9.01
2022-12-16T04:03:37.389Z,-8.92
2022-12-16T04:07:39.113Z,-8.89
2022-12-16T04:11:59.343Z,-8.98
2022-12-16T04:16:19.815Z,-9.13
2022-12-16T04:21:04.114Z,-9.19
2022-12-16T04:25:10.554Z,-9.07
2022-12-16T04:29:12.033Z,-9.16
2022-12-16T04:33:34.162Z,-9.15
2022-12-16T04:37:54.628Z,-9.39
2022-12-16T04:42:14.810Z,-9.29
2022-12-16T04:46:35.195Z,-9.91
2022-12-16T04:50:55.214Z,-9.67
2022-12-16T04:55:15.087Z,-9.65
2022-12-16T04:59:35.503Z,-9.92
2022-12-16T05:03:55.210Z,-9.71
2022-12-16T05:08:15.405Z,-9.47
2022-12-16T05:12:35.080Z,-9.41
2022-12-16T05:16:54.878Z,-9.28
2022-12-16T05:21:19.576Z,-9.27
2022-12-16T05:25:39.830Z,-9.36
2022-12-16T05:29:59.540Z,-9.39
2022-12-16T05:34:19.405Z,-9.24
2022-12-16T05:38:39.170Z,-9.20
2022-12-16T05:42:58.791Z,-9.16
2022-12-16T05:47:18.659Z,-9.19
2022-12-16T05:51:38.409Z,-9.09
2022-12-16T05:56:00.480Z,-9.05
2022-12-16T06:00:20.837Z,-9.00
2022-12-16T06:04:40.914Z,-9.17
2022-12-16T06:09:00.567Z,-9.04
2022-12-16T06:13:20.330Z,-9.01
2022-12-16T06:17:40.660Z,-9.10
2022-12-16T06:22:00.348Z,-9.06
2022-12-16T06:26:20.574Z,-9.17
2022-12-16T06:30:40.848Z,-9.08
2022-12-16T06:35:00.614Z,-8.94
2022-12-16T06:39:20.545Z,-9.22
2022-12-16T06:43:40.408Z,-9.28
2022-12-16T06:48:03.073Z,-9.08
2022-12-16T06:52:22.919Z,-8.95
2022-12-16T06:56:42.632Z,-8.98
2022-12-16T07:01:03.059Z,-8.95
2022-12-16T07:05:23.826Z,-8.88
2022-12-16T07:09:43.532Z,-8.97
2022-12-16T07:14:03.676Z,-8.95
2022-12-16T07:18:24.069Z,-8.90
2022-12-16T07:22:43.893Z,-8.89
2022-12-16T07:27:03.679Z,-8.77
2022-12-16T07:31:24.235Z,-8.81
2022-12-16T07:35:44.569Z,-8.84
2022-12-16T07:40:04.930Z,-8.73
2022-12-16T07:44:25.116Z,-8.83
2022-12-16T07:48:45.323Z,-8.73
2022-12-16T07:53:11.486Z,-8.64
2022-12-16T07:57:31.142Z,-8.58
2022-12-16T08:01:51.171Z,-8.51
2022-12-16T08:06:11.273Z,-8.76
2022-12-16T08:10:31.650Z,-8.48
2022-12-16T08:14:51.397Z,-8.36
2022-12-16T08:19:12.661Z,-8.28
2022-12-16T08:23:32.864Z,-8.15
2022-12-16T08:27:52.999Z,-8.02
2022-12-16T08:32:12.749Z,-7.99
2022-12-16T08:36:32.735Z,-7.86
2022-12-16T08:40:52.435Z,-7.87
2022-12-16T08:45:15.161Z,-7.64
2022-12-16T08:49:35.438Z,-7.54
2022-12-16T08:53:55.806Z,-7.45
2022-12-16T08:58:16.032Z,-7.21
2022-12-16T09:02:35.898Z,-6.98
2022-12-16T09:06:55.736Z,-6.71
2022-12-16T09:11:20.012Z,-6.31
2022-12-16T09:15:40.227Z,-5.83
2022-12-16T09:20:00.051Z,-5.46
2022-12-16T09:24:19.893Z,-4.82
2022-12-16T09:28:39.609Z,-4.08
2022-12-16T09:33:01.581Z,-3.27
2022-12-16T09:37:21.291Z,-2.89
2022-12-16T09:41:44.638Z,-2.62
2022-12-16T09:46:35.480Z,-2.59
2022-12-16T09:50:59.295Z,-2.59
2022-12-16T09:55:22.192Z,-2.64
2022-12-16T09:59:53.627Z,-2.70
2022-12-16T10:04:14.387Z,-2.82
2022-12-16T10:08:40.735Z,-3.11
2022-12-16T10:13:14.669Z,-3.11
2022-12-16T10:17:43.359Z,-3.29
2022-12-16T10:22:18.573Z,-3.22
2022-12-16T10:27:06.702Z,-3.41
2022-12-16T10:31:35.254Z,-3.69
2022-12-16T10:36:06.471Z,-3.38
2022-12-16T10:40:34.293Z,-3.03
2022-12-16T10:45:18.551Z,-3.03
2022-12-16T10:49:39.961Z,-3.51
2022-12-16T10:54:00.239Z,-3.36
2022-12-16T10:58:48.352Z,-2.96
2022-12-16T11:03:08.198Z,-2.69
2022-12-16T11:07:42.401Z,-2.89
2022-12-16T11:12:02.186Z,-3.04
2022-12-16T11:16:31.282Z,-3.06
2022-12-16T11:20:51.488Z,-3.04
2022-12-16T11:25:38.420Z,-2.84
2022-12-16T11:30:16.711Z,-2.61
2022-12-16T11:34:37.047Z,-2.64
2022-12-16T11:39:03.594Z,-2.52
2022-12-16T11:43:24.718Z,-2.34
2022-12-16T11:47:56.468Z,-2.34
2022-12-16T11:52:36.504Z,-2.42
2022-12-16T11:57:02.618Z,-1.71
2022-12-16T12:01:40.068Z,-2.07
2022-12-16T12:06:26.359Z,-2.17
2022-12-16T12:10:55.951Z,-1.42
2022-12-16T12:15:21.044Z,-0.99
2022-12-16T12:20:22.842Z,-0.66
2022-12-16T12:24:57.803Z,-1.17
2022-12-16T12:29:34.981Z,-0.91
2022-12-16T12:34:03.087Z,-0.96
2022-12-16T12:38:42.674Z,-1.11
2022-12-16T12:43:09.535Z,-1.38
2022-12-16T12:47:31.426Z,-1.46
2022-12-16T12:52:09.452Z,-1.63
2022-12-16T12:56:32.168Z,-1.77
2022-12-16T13:01:00.980Z,-1.44
2022-12-16T13:05:24.647Z,-1.81
2022-12-16T13:09:49.395Z,-1.90
2022-12-16T13:14:09.368Z,-1.84
2022-12-16T13:18:29.106Z,-1.78
2022-12-16T13:22:54.427Z,-1.84
2022-12-16T13:27:21.001Z,-2.07
2022-12-16T13:31:42.233Z,-2.04
2022-12-16T13:36:17.076Z,-2.05
2022-12-16T13:40:42.400Z,-2.04
2022-12-16T13:45:02.144Z,-2.14
2022-12-16T13:49:56.240Z,-2.17
2022-12-16T13:54:17.898Z,-2.15
2022-12-16T13:59:08.497Z,-2.15
2022-12-16T14:04:07.512Z,-2.27
2022-12-16T14:08:35.945Z,-2.23
2022-12-16T14:13:18.008Z,-2.26
2022-12-16T14:17:48.375Z,-2.35
2022-12-16T14:22:18.791Z,-2.37
2022-12-16T14:26:39.110Z,-2.37
2022-12-16T14:30:59.389Z,-2.51
2022-12-16T14:35:24.328Z,-2.55
2022-12-16T14:39:50.148Z,-2.51
2022-12-16T14:44:10.511Z,-2.46
2022-12-16T14:48:43.184Z,-2.59
2022-12-16T14:53:07.684Z,-2.61
2022-12-16T14:57:36.166Z,-2.59
2022-12-16T15:01:56.723Z,-2.70
2022-12-16T15:06:17.723Z,-2.71
2022-12-16T15:10:39.368Z,-2.67
2022-12-16T15:15:00.697Z,-2.63
2022-12-16T15:19:22.739Z,-2.69
2022-12-16T15:23:48.657Z,-2.62
2022-12-16T15:28:13.540Z,-2.63
2022-12-16T15:32:45.682Z,-2.67
2022-12-16T15:37:05.475Z,-2.73
2022-12-16T15:41:25.817Z,-2.73
2022-12-16T15:45:47.003Z,-2.74
2022-12-16T15:50:08.195Z,-2.72
2022-12-16T15:54:35.169Z,-2.72
2022-12-16T15:58:55.548Z,-2.77
2022-12-16T16:03:15.561Z,-2.80
2022-12-16T16:07:41.330Z,-2.82
2022-12-16T16:12:01.492Z,-2.78
2022-12-16T16:16:22.411Z,-2.84
2022-12-16T16:20:42.667Z,-2.80
2022-12-16T16:25:03.045Z,-2.75
2022-12-16T16:29:23.467Z,-2.85
2022-12-16T16:33:43.172Z,-2.84
2022-12-16T16:38:03.321Z,-2.82
2022-12-16T16:42:23.761Z,-2.92
2022-12-16T16:46:50.432Z,-2.90
2022-12-16T16:51:14.507Z,-2.83
2022-12-16T16:55:42.746Z,-2.73
2022-12-16T17:00:03.201Z,-2.78
2022-12-16T17:04:23.848Z,-2.99
2022-12-16T17:08:43.893Z,-2.83
2022-12-16T17:13:04.811Z,-2.76
2022-12-16T17:17:25.289Z,-2.86
2022-12-16T17:21:45.046Z,-2.76
2022-12-16T17:26:05.253Z,-2.78
2022-12-16T17:30:35.212Z,-2.75
2022-12-16T17:34:54.917Z,-2.76
2022-12-16T17:39:15.249Z,-2.84
2022-12-16T17:43:35.306Z,-2.79
2022-12-16T17:47:55.266Z,-2.74
2022-12-16T17:52:15.063Z,-2.86
2022-12-16T17:56:35.324Z,-2.79
2022-12-16T18:00:55.008Z,-2.75
2022-12-16T18:05:14.805Z,-2.75
2022-12-16T18:09:34.540Z,-2.69
2022-12-16T18:13:54.282Z,-2.74
2022-12-16T18:18:14.174Z,-2.79
2022-12-16T18:22:36.540Z,-2.72
2022-12-16T18:26:56.316Z,-2.99
2022-12-16T18:31:16.203Z,-2.95
2022-12-16T18:35:36.392Z,-2.82
2022-12-16T18:39:56.398Z,-2.82
2022-12-16T18:44:16.451Z,-2.86
2022-12-16T18:48:36.042Z,-2.85
2022-12-16T18:52:56.525Z,-2.89
2022-12-16T18:57:17.085Z,-2.79
2022-12-16T19:01:45.626Z,-2.85
2022-12-16T19:06:12.893Z,-2.81
2022-12-16T19:10:33.132Z,-2.94
2022-12-16T19:14:52.946Z,-3.03
2022-12-16T19:19:19.659Z,-2.91
2022-12-16T19:23:40.170Z,-2.93
2022-12-16T19:28:00.629Z,-2.84
2022-12-16T19:32:20.392Z,-2.87
2022-12-16T19:36:43.865Z,-2.85
2022-12-16T19:41:11.245Z,-2.90
2022-12-16T19:45:31.630Z,-2.81
2022-12-16T19:49:51.640Z,-2.81
2022-12-16T19:54:11.875Z,-2.92
2022-12-16T19:58:48.780Z,-2.86
2022-12-16T20:03:08.568Z,-2.79
2022-12-16T20:07:29.542Z,-2.82
2022-12-16T20:11:49.920Z,-2.82
2022-12-16T20:16:09.966Z,-2.87
2022-12-16T20:20:29.864Z,-3.19
2022-12-16T20:24:50.301Z,-2.89
2022-12-16T20:29:10.059Z,-2.86
2022-12-16T20:33:33.829Z,-2.86
2022-12-16T20:42:34.353Z,-2.87
2022-12-16T20:46:56.312Z,-2.89
2022-12-16T20:51:25.935Z,-2.92
2022-12-16T20:55:47.110Z,-2.76
2022-12-16T21:00:06.833Z,-2.74
2022-12-16T21:04:28.211Z,-2.81
2022-12-16T21:08:48.629Z,-2.91
2022-12-16T21:13:08.375Z,-2.88
2022-12-16T21:17:29.104Z,-2.86
2022-12-16T21:21:49.395Z,-2.96
2022-12-16T21:26:10.517Z,-2.78
2022-12-16T21:30:30.860Z,-2.85
2022-12-16T21:34:51.785Z,-2.89
2022-12-16T21:39:11.615Z,-1.68
2022-12-16T21:43:34.468Z,-1.63
2022-12-16T21:47:55.914Z,-2.57
2022-12-16T21:52:16.080Z,-2.56
2022-12-16T21:56:35.923Z,-2.82
2022-12-16T22:01:00.515Z,-2.79
2022-12-16T22:05:21.236Z,-2.85
2022-12-16T22:09:41.543Z,-2.89
2022-12-16T22:14:01.874Z,-2.76
2022-12-16T22:18:21.604Z,-2.82
2022-12-16T22:22:41.892Z,-2.84
2022-12-16T22:27:01.599Z,-2.91
2022-12-16T22:31:21.514Z,-2.87
2022-12-16T22:35:41.588Z,-2.76
2022-12-16T22:40:01.519Z,-2.75
2022-12-16T22:44:22.509Z,-2.71
2022-12-16T22:48:52.963Z,-2.82
2022-12-16T22:53:16.206Z,-2.81
2022-12-16T22:57:35.871Z,-2.74
2022-12-16T23:01:55.661Z,-2.71
2022-12-16T23:06:16.916Z,-2.61
2022-12-16T23:10:36.790Z,-2.67
2022-12-16T23:14:57.065Z,-2.75
2022-12-16T23:19:16.777Z,-2.74
2022-12-16T23:23:36.893Z,-2.71
2022-12-16T23:27:57.119Z,-2.79
2022-12-16T23:32:16.889Z,-2.90
2022-12-16T23:36:36.623Z,-2.70
2022-12-16T23:40:56.333Z,-2.71
2022-12-16T23:45:17.133Z,-2.84
2022-12-16T23:49:36.928Z,-2.70
2022-12-16T23:53:57.335Z,-2.69
2022-12-16T23:58:20.626Z,-2.64
